createdAt,value
2023-04-06T00:01:58.602Z,100097.81
2023-04-06T00:04:26.635Z,100098.69
2023-04-06T00:06:54.091Z,100101.50
2023-04-06T00:09:21.562Z,100100.16
2023-04-06T00:11:49.304Z,100097.75
2023-04-06T00:14:18.385Z,100089.88
2023-04-06T00:16:46.129Z,100093.69
2023-04-06T00:19:13.914Z,100093.59
2023-04-06T00:21:41.460Z,100093.69
2023-04-06T00:24:08.936Z,100088.78
2023-04-06T00:26:36.835Z,100090.03
2023-04-06T00:29:04.455Z,100088.03
2023-04-06T00:31:31.985Z,100097.00
2023-04-06T00:33:59.758Z,100090.47
2023-04-06T00:36:27.716Z,100086.22
2023-04-06T00:38:56.023Z,100080.75
2023-04-06T00:41:23.879Z,100076.16
2023-04-06T00:43:52.149Z,100074.44
2023-04-06T00:46:20.531Z,100074.84
2023-04-06T00:48:48.298Z,100068.31
2023-04-06T00:51:15.837Z,100074.41
2023-04-06T00:53:43.527Z,100070.13
2023-04-06T00:56:11.706Z,100075.38
2023-04-06T00:58:41.687Z,100070.22
2023-04-06T01:01:09.555Z,100074.28
2023-04-06T01:03:37.871Z,100074.87
2023-04-06T01:06:05.925Z,100070.06
2023-04-06T01:08:34.056Z,100074.34
2023-04-06T01:11:03.217Z,100074.91
2023-04-06T01:13:30.842Z,100076.22
2023-04-06T01:15:58.592Z,100072.75
2023-04-06T01:18:30.811Z,100074.13
2023-04-06T01:21:00.546Z,100075.72
2023-04-06T01:23:28.874Z,100084.25
2023-04-06T01:25:56.595Z,100081.69
2023-04-06T01:28:24.214Z,100076.03
2023-04-06T01:30:52.439Z,100078.00
2023-04-06T01:33:21.135Z,100072.03
2023-04-06T01:35:51.071Z,100076.94
2023-04-06T01:38:19.529Z,100073.81
2023-04-06T01:40:48.182Z,100068.59
2023-04-06T01:43:17.522Z,100073.84
2023-04-06T01:45:46.140Z,100069.50
2023-04-06T01:48:14.090Z,100076.03
2023-04-06T01:50:42.203Z,100065.84
2023-04-06T01:53:11.302Z,100068.16
2023-04-06T01:55:39.122Z,100058.91
2023-04-06T01:58:09.446Z,100062.16
2023-04-06T02:00:37.447Z,100067.28
2023-04-06T02:03:05.777Z,100059.72
2023-04-06T02:05:39.226Z,100062.81
2023-04-06T02:08:09.298Z,100063.00
2023-04-06T02:10:37.120Z,100063.91
2023-04-06T02:13:05.506Z,100062.38
2023-04-06T02:15:33.603Z,100052.72
2023-04-06T02:18:01.716Z,100057.41
2023-04-06T02:20:29.587Z,100053.94
2023-04-06T02:22:59.697Z,100052.84
2023-04-06T02:25:27.646Z,100039.63
2023-04-06T02:27:55.822Z,100044.81
2023-04-06T02:30:23.545Z,100041.47
2023-04-06T02:32:51.242Z,100034.59
2023-04-06T02:35:19.245Z,100039.22
2023-04-06T02:37:48.366Z,100036.53
2023-04-06T02:40:15.939Z,100033.16
2023-04-06T02:42:43.485Z,100029.44
2023-04-06T02:45:12.419Z,100031.28
2023-04-06T02:47:40.312Z,100027.00
2023-04-06T02:50:08.098Z,100031.19
2023-04-06T02:52:37.390Z,100029.56
2023-04-06T02:55:05.553Z,100035.66
2023-04-06T02:57:33.087Z,100027.13
2023-04-06T03:00:00.940Z,100024.03
2023-04-06T03:02:29.404Z,100025.41
2023-04-06T03:04:59.440Z,100023.91
2023-04-06T03:07:27.628Z,100028.34
2023-04-06T03:09:56.108Z,100020.59
2023-04-06T03:12:23.676Z,100024.75
2023-04-06T03:14:53.207Z,100028.03
2023-04-06T03:17:21.350Z,100023.94
2023-04-06T03:19:49.470Z,100026.16
2023-04-06T03:22:17.877Z,100022.00
2023-04-06T03:24:47.981Z,100026.03
2023-04-06T03:27:15.930Z,100024.63
2023-04-06T03:29:45.526Z,100032.09
2023-04-06T03:32:13.564Z,100030.47
2023-04-06T03:34:41.676Z,100030.37
2023-04-06T03:37:10.702Z,100031.91
2023-04-06T03:39:39.411Z,100026.87
2023-04-06T03:42:07.325Z,100037.81
2023-04-06T03:44:35.622Z,100034.47
2023-04-06T03:47:03.304Z,100038.34
2023-04-06T03:49:31.209Z,100036.44
2023-04-06T03:51:59.298Z,100030.56
2023-04-06T03:54:26.800Z,100035.66
2023-04-06T03:56:54.219Z,100032.75
2023-04-06T03:59:22.152Z,100026.91
2023-04-06T04:01:49.782Z,100032.56
2023-04-06T04:04:17.697Z,100034.63
2023-04-06T04:06:45.388Z,100028.53
2023-04-06T04:09:12.976Z,100023.44
2023-04-06T04:11:40.916Z,100032.41
2023-04-06T04:14:08.434Z,100024.03
2023-04-06T04:16:36.121Z,100026.53
2023-04-06T04:19:03.895Z,100024.50
2023-04-06T04:21:32.942Z,100021.25
2023-04-06T04:24:01.734Z,100025.31
2023-04-06T04:26:29.614Z,100029.09
2023-04-06T04:28:57.139Z,100022.84
2023-04-06T04:31:24.746Z,100030.44
2023-04-06T04:33:53.724Z,100020.91
2023-04-06T04:36:25.441Z,100025.31
2023-04-06T04:38:53.963Z,100030.47
2023-04-06T04:41:21.593Z,100023.47
2023-04-06T04:43:50.229Z,100017.34
2023-04-06T04:46:21.147Z,100019.97
2023-04-06T04:48:49.040Z,100018.75
2023-04-06T04:51:16.846Z,100024.56
2023-04-06T04:53:46.207Z,100020.28
2023-04-06T04:56:15.786Z,100015.16
2023-04-06T04:58:44.375Z,100010.66
2023-04-06T05:01:12.512Z,100006.41
2023-04-06T05:03:41.241Z,100008.50
2023-04-06T05:06:10.085Z,100001.69
2023-04-06T05:08:40.067Z,100004.09
2023-04-06T05:11:08.146Z,100004.62
2023-04-06T05:13:36.412Z,100004.28
2023-04-06T05:16:06.845Z,100006.41
2023-04-06T05:18:35.073Z,100006.47
2023-04-06T05:21:03.182Z,100013.37
2023-04-06T05:23:31.811Z,100001.59
2023-04-06T05:26:01.921Z,100006.31
2023-04-06T05:28:29.620Z,99996.22
2023-04-06T05:30:58.034Z,99990.06
2023-04-06T05:33:27.270Z,99988.06
2023-04-06T05:35:55.896Z,99980.56
2023-04-06T05:38:24.115Z,99992.19
2023-04-06T05:40:52.497Z,99988.19
2023-04-06T05:43:22.920Z,99985.25
2023-04-06T05:45:53.096Z,99987.44
2023-04-06T05:48:21.397Z,99986.63
2023-04-06T05:50:52.174Z,99987.72
2023-04-06T05:53:22.169Z,99984.16
2023-04-06T05:55:50.898Z,99981.66
2023-04-06T05:58:18.673Z,99976.78
2023-04-06T06:00:47.094Z,99969.87
2023-04-06T06:03:16.308Z,99968.81
2023-04-06T06:05:46.825Z,99975.47
2023-04-06T06:08:15.530Z,99962.00
2023-04-06T06:10:43.950Z,99966.88
2023-04-06T06:13:12.149Z,99964.50
2023-04-06T06:15:39.989Z,99962.66
2023-04-06T06:18:07.931Z,99958.94
2023-04-06T06:20:35.935Z,99960.16
2023-04-06T06:23:04.265Z,99959.56
2023-04-06T06:25:32.141Z,99953.72
2023-04-06T06:28:00.071Z,99947.03
2023-04-06T06:30:29.284Z,99945.09
2023-04-06T06:32:56.821Z,99946.19
2023-04-06T06:35:24.948Z,99941.06
2023-04-06T06:37:53.119Z,99939.75
2023-04-06T06:40:25.022Z,99935.91
2023-04-06T06:42:53.900Z,99940.28
2023-04-06T06:45:22.457Z,99933.06
2023-04-06T06:47:50.842Z,99931.44
2023-04-06T06:50:20.081Z,99936.12
2023-04-06T06:52:47.531Z,99933.34
2023-04-06T06:55:16.278Z,99926.66
2023-04-06T06:57:44.206Z,99921.78
2023-04-06T07:00:14.178Z,99924.41
2023-04-06T07:02:42.099Z,99923.66
2023-04-06T07:05:23.943Z,99925.44
2023-04-06T07:07:55.385Z,99916.56
2023-04-06T07:10:23.464Z,99919.50
2023-04-06T07:12:51.009Z,99913.41
2023-04-06T07:15:18.877Z,99918.63
2023-04-06T07:17:46.896Z,99914.31
2023-04-06T07:20:14.911Z,99911.09
2023-04-06T07:22:44.689Z,99910.59
2023-04-06T07:25:12.506Z,99919.91
2023-04-06T07:27:41.664Z,99913.72
2023-04-06T07:30:09.699Z,99920.53
2023-04-06T07:32:38.404Z,99918.50
2023-04-06T07:35:06.291Z,99908.38
2023-04-06T07:37:33.718Z,99913.12
2023-04-06T07:40:01.482Z,99907.75
2023-04-06T07:42:30.653Z,99914.59
2023-04-06T07:44:58.290Z,99904.50
2023-04-06T07:47:26.320Z,99906.53
2023-04-06T07:49:57.040Z,99911.75
2023-04-06T07:52:24.556Z,99908.53
2023-04-06T07:54:52.334Z,99900.63
2023-04-06T07:57:19.983Z,99909.16
2023-04-06T07:59:47.460Z,99904.72
2023-04-06T08:02:15.726Z,99901.25
2023-04-06T08:04:45.780Z,99897.88
2023-04-06T08:07:13.619Z,99888.16
2023-04-06T08:09:41.090Z,99891.41
2023-04-06T08:12:08.803Z,99884.97
2023-04-06T08:14:36.314Z,99891.56
2023-04-06T08:17:06.247Z,99890.00
2023-04-06T08:19:34.323Z,99897.34
2023-04-06T08:22:01.919Z,99899.41
2023-04-06T08:24:29.472Z,99895.72
2023-04-06T08:26:57.195Z,99891.00
2023-04-06T08:29:24.691Z,99891.97
2023-04-06T08:31:52.406Z,99891.91
2023-04-06T08:34:20.205Z,99885.28
2023-04-06T08:36:47.807Z,99882.88
2023-04-06T08:39:15.310Z,99877.88
2023-04-06T08:41:43.947Z,99877.59
2023-04-06T08:44:12.519Z,99874.62
2023-04-06T08:46:40.118Z,99866.06
2023-04-06T08:49:08.896Z,99860.25
2023-04-06T08:51:39.041Z,99866.81
2023-04-06T08:54:06.690Z,99851.47
2023-04-06T08:56:38.656Z,99852.44
2023-04-06T08:59:07.208Z,99851.50
2023-04-06T09:01:42.141Z,99856.69
2023-04-06T09:04:12.348Z,99842.34
2023-04-06T09:06:41.802Z,99839.88
2023-04-06T09:09:09.590Z,99836.47
2023-04-06T09:11:50.766Z,99829.47
2023-04-06T09:14:33.766Z,99828.69
2023-04-06T09:17:01.075Z,99836.97
2023-04-06T09:19:28.757Z,99826.56
2023-04-06T09:22:08.048Z,99824.13
2023-04-06T09:24:44.168Z,99820.88
2023-04-06T09:27:11.656Z,99820.91
2023-04-06T09:29:39.443Z,99823.41
2023-04-06T09:32:08.026Z,99809.56
2023-04-06T09:34:35.587Z,99818.22
2023-04-06T09:37:14.092Z,99821.19
2023-04-06T09:39:41.858Z,99817.09
2023-04-06T09:42:09.720Z,99806.97
2023-04-06T09:44:37.276Z,99803.59
2023-04-06T09:47:07.966Z,99797.47
2023-04-06T09:49:36.397Z,99798.41
2023-04-06T09:52:05.605Z,99800.94
2023-04-06T09:54:33.253Z,99794.84
2023-04-06T09:57:26.736Z,99796.66
2023-04-06T10:00:00.267Z,99810.00
2023-04-06T10:02:47.663Z,99803.03
2023-04-06T10:05:27.713Z,99794.03
2023-04-06T10:08:00.722Z,99793.41
2023-04-06T10:10:29.911Z,99794.28
2023-04-06T10:12:57.790Z,99796.91
2023-04-06T10:15:25.609Z,99805.59
2023-04-06T10:17:53.388Z,99788.37
2023-04-06T10:20:32.194Z,99782.38
2023-04-06T10:23:16.431Z,99777.12
2023-04-06T10:25:58.131Z,99777.12
2023-04-06T10:28:26.738Z,99778.06
2023-04-06T10:31:06.181Z,99765.06
2023-04-06T10:33:37.218Z,99768.53
2023-04-06T10:36:24.278Z,99766.81
2023-04-06T10:39:00.461Z,99768.41
2023-04-06T10:41:42.280Z,99759.81
2023-04-06T10:44:22.156Z,99765.06
2023-04-06T10:46:57.419Z,99759.88
2023-04-06T10:49:27.353Z,99757.25
2023-04-06T10:51:56.377Z,99753.72
2023-04-06T10:54:25.906Z,99756.41
2023-04-06T10:56:53.668Z,99753.81
2023-04-06T10:59:22.625Z,99738.19
2023-04-06T11:01:50.673Z,99739.91
2023-04-06T11:04:19.323Z,99742.53
2023-04-06T11:06:50.967Z,99742.44
2023-04-06T11:09:27.091Z,99735.50
2023-04-06T11:11:55.335Z,99734.69
2023-04-06T11:14:23.121Z,99744.22
2023-04-06T11:16:51.200Z,99739.78
2023-04-06T11:19:19.047Z,99735.50
2023-04-06T11:21:48.502Z,99734.53
2023-04-06T11:24:16.368Z,99732.81
2023-04-06T11:26:46.792Z,99737.06
2023-04-06T11:29:14.991Z,99731.03
2023-04-06T11:32:03.645Z,99733.78
2023-04-06T11:34:33.593Z,99721.66
2023-04-06T11:37:03.448Z,99724.25
2023-04-06T11:39:31.427Z,99714.72
2023-04-06T11:42:00.850Z,99718.19
2023-04-06T11:44:41.403Z,99717.28
2023-04-06T11:47:10.783Z,99721.69
2023-04-06T11:49:40.043Z,99720.81
2023-04-06T11:52:24.813Z,99712.97
2023-04-06T11:54:54.245Z,99723.38
2023-04-06T11:57:25.423Z,99712.88
2023-04-06T11:59:53.534Z,99711.03
2023-04-06T12:02:21.321Z,99710.28
2023-04-06T12:04:49.096Z,99710.31
2023-04-06T12:07:16.624Z,99711.25
2023-04-06T12:09:44.326Z,99709.34
2023-04-06T12:12:12.081Z,99709.34
2023-04-06T12:14:42.567Z,99704.28
2023-04-06T12:17:09.983Z,99708.56
2023-04-06T12:19:37.715Z,99702.50
2023-04-06T12:22:05.419Z,99711.25
2023-04-06T12:24:34.330Z,99708.66
2023-04-06T12:27:10.243Z,99710.38
2023-04-06T12:29:39.378Z,99702.63
2023-04-06T12:32:07.211Z,99711.25
2023-04-06T12:34:34.773Z,99703.41
2023-04-06T12:37:02.238Z,99713.88
2023-04-06T12:39:30.083Z,99700.66
2023-04-06T12:41:58.185Z,99698.91
2023-04-06T12:44:26.949Z,99707.75
2023-04-06T12:46:55.179Z,99700.78
2023-04-06T12:49:22.981Z,99698.97
2023-04-06T12:51:51.253Z,99691.13
2023-04-06T12:54:19.190Z,99692.72
2023-04-06T12:56:47.021Z,99698.13
2023-04-06T12:59:14.552Z,99690.13
2023-04-06T13:01:42.413Z,99684.91
2023-04-06T13:04:10.086Z,99688.44
2023-04-06T13:06:37.530Z,99681.47
2023-04-06T13:09:06.560Z,99681.47
2023-04-06T13:11:34.014Z,99685.16
2023-04-06T13:14:01.490Z,99699.84
2023-04-06T13:16:29.474Z,99690.34
2023-04-06T13:18:56.942Z,99683.44
2023-04-06T13:21:24.418Z,99696.50
2023-04-06T13:23:52.168Z,99692.16
2023-04-06T13:26:19.638Z,99692.16
2023-04-06T13:28:47.147Z,99682.50
2023-04-06T13:31:14.994Z,99679.13
2023-04-06T13:33:42.527Z,99690.47
2023-04-06T13:36:10.203Z,99697.44
2023-04-06T13:38:39.976Z,99697.44
2023-04-06T13:41:07.564Z,99681.87
2023-04-06T13:43:35.099Z,99686.19
2023-04-06T13:46:02.850Z,99679.22
2023-04-06T13:48:30.508Z,99679.19
2023-04-06T13:50:58.698Z,99676.62
2023-04-06T13:53:26.447Z,99671.41
2023-04-06T13:55:56.955Z,99676.62
2023-04-06T13:58:24.550Z,99678.34
2023-04-06T14:00:52.272Z,99666.22
2023-04-06T14:03:22.164Z,99672.22
2023-04-06T14:05:49.620Z,99675.69
2023-04-06T14:08:17.105Z,99666.03
2023-04-06T14:10:44.791Z,99665.34
2023-04-06T14:13:12.808Z,99667.13
2023-04-06T14:15:40.247Z,99669.75
2023-04-06T14:18:08.940Z,99673.22
2023-04-06T14:20:36.377Z,99668.88
2023-04-06T14:23:04.451Z,99661.06
2023-04-06T14:25:33.138Z,99669.69
2023-04-06T14:28:02.731Z,99663.63
2023-04-06T14:30:31.698Z,99674.91
2023-04-06T14:32:59.519Z,99678.28
2023-04-06T14:35:29.045Z,99667.09
2023-04-06T14:37:58.975Z,99671.44
2023-04-06T14:40:26.777Z,99680.94
2023-04-06T14:42:55.759Z,99678.41
2023-04-06T14:45:23.613Z,99680.13
2023-04-06T14:47:51.657Z,99669.72
2023-04-06T14:50:19.090Z,99685.31
2023-04-06T14:52:47.871Z,99686.22
2023-04-06T14:55:16.530Z,99695.72
2023-04-06T14:57:43.930Z,99694.78
2023-04-06T15:00:12.254Z,99697.41
2023-04-06T15:02:40.884Z,99698.28
2023-04-06T15:05:08.774Z,99687.91
2023-04-06T15:07:36.273Z,99697.41
2023-04-06T15:10:05.698Z,99699.19
2023-04-06T15:12:33.731Z,99709.56
2023-04-06T15:15:01.998Z,99731.09
2023-04-06T15:17:29.684Z,99724.19
2023-04-06T15:19:57.092Z,99704.31
2023-04-06T15:22:24.533Z,99702.63
2023-04-06T15:24:52.158Z,99697.44
2023-04-06T15:27:19.520Z,99697.44
2023-04-06T15:29:46.903Z,99683.56
2023-04-06T15:32:14.816Z,99691.34
2023-04-06T15:34:42.483Z,99692.25
2023-04-06T15:37:09.841Z,99691.31
2023-04-06T15:39:37.836Z,99692.12
2023-04-06T15:42:05.397Z,99685.31
2023-04-06T15:44:32.843Z,99684.34
2023-04-06T15:47:00.641Z,99687.03
2023-04-06T15:49:28.586Z,99692.19
2023-04-06T15:51:56.111Z,99690.50
2023-04-06T15:54:23.788Z,99690.53
2023-04-06T15:56:51.314Z,99719.87
2023-04-06T15:59:18.851Z,99721.41
2023-04-06T16:01:47.159Z,99723.22
2023-04-06T16:04:15.119Z,99731.03
2023-04-06T16:06:42.682Z,99720.59
2023-04-06T16:09:10.268Z,99722.28
2023-04-06T16:11:37.968Z,99723.09
2023-04-06T16:14:05.613Z,99733.91
2023-04-06T16:16:33.110Z,99734.31
2023-04-06T16:19:00.975Z,99734.16
2023-04-06T16:21:28.772Z,99734.84
2023-04-06T16:23:58.516Z,99736.69
2023-04-06T16:26:27.545Z,99736.69
2023-04-06T16:28:55.070Z,99746.00
2023-04-06T16:31:23.843Z,99750.28
2023-04-06T16:33:56.869Z,99749.66
2023-04-06T16:36:28.979Z,99755.22
2023-04-06T16:38:57.227Z,99762.91
2023-04-06T16:41:25.002Z,99770.59
2023-04-06T16:43:53.640Z,99766.22
2023-04-06T16:46:21.550Z,99760.94
2023-04-06T16:48:49.058Z,99767.34
2023-04-06T16:51:16.716Z,99769.88
2023-04-06T16:53:44.627Z,99770.38
2023-04-06T16:56:12.179Z,99768.53
2023-04-06T16:58:39.643Z,99779.03
2023-04-06T17:01:07.294Z,99776.75
2023-04-06T17:03:35.314Z,99773.34
2023-04-06T17:06:02.774Z,99775.69
2023-04-06T17:08:30.546Z,99791.34
2023-04-06T17:11:02.497Z,99796.38
2023-04-06T17:13:31.332Z,99785.38
2023-04-06T17:15:59.727Z,99779.47
2023-04-06T17:18:27.464Z,99789.97
2023-04-06T17:20:55.263Z,99785.16
2023-04-06T17:23:24.169Z,99778.09
2023-04-06T17:25:52.418Z,99785.97
2023-04-06T17:28:27.992Z,99793.44
2023-04-06T17:30:56.427Z,99797.59
2023-04-06T17:33:25.133Z,99802.50
2023-04-06T17:35:53.073Z,99802.19
2023-04-06T17:38:21.141Z,99802.00
2023-04-06T17:40:48.664Z,99798.31
2023-04-06T17:43:17.061Z,99806.28
2023-04-06T17:45:44.937Z,99808.47
2023-04-06T17:48:12.401Z,99813.00
2023-04-06T17:50:40.269Z,99817.78
2023-04-06T17:53:08.532Z,99825.44
2023-04-06T17:55:36.385Z,99822.91
2023-04-06T17:58:04.879Z,99826.75
2023-04-06T18:00:32.315Z,99816.88
2023-04-06T18:03:00.174Z,99821.38
2023-04-06T18:05:27.739Z,99818.81
2023-04-06T18:07:57.917Z,99821.62
2023-04-06T18:10:25.733Z,99818.06
2023-04-06T18:12:53.160Z,99815.28
2023-04-06T18:15:20.837Z,99814.53
2023-04-06T18:17:50.468Z,99815.06
2023-04-06T18:20:17.926Z,99820.00
2023-04-06T18:22:45.411Z,99822.88
2023-04-06T18:25:13.192Z,99819.56
2023-04-06T18:27:41.004Z,99812.66
2023-04-06T18:30:08.811Z,99815.66
2023-04-06T18:32:36.843Z,99826.63
2023-04-06T18:35:06.786Z,99816.31
2023-04-06T18:37:34.243Z,99819.75
2023-04-06T18:40:02.247Z,99824.00
2023-04-06T18:42:29.601Z,99821.03
2023-04-06T18:44:56.967Z,99832.56
2023-04-06T18:47:24.684Z,99829.12
2023-04-06T18:49:52.146Z,99824.41
2023-04-06T18:52:19.590Z,99835.09
2023-04-06T18:54:47.226Z,99828.97
2023-04-06T18:57:14.634Z,99828.63
2023-04-06T18:59:42.082Z,99830.12
2023-04-06T19:02:09.797Z,99825.75
2023-04-06T19:04:37.462Z,99824.56
2023-04-06T19:07:04.961Z,99825.97
2023-04-06T19:09:32.578Z,99829.84
2023-04-06T19:12:00.046Z,99818.66
2023-04-06T19:14:31.650Z,99818.22
2023-04-06T19:16:59.636Z,99824.84
2023-04-06T19:19:27.114Z,99809.81
2023-04-06T19:21:55.123Z,99811.50
2023-04-06T19:24:22.791Z,99809.72
2023-04-06T19:26:50.413Z,99806.62
2023-04-06T19:29:18.012Z,99801.31
2023-04-06T19:31:45.727Z,99798.69
2023-04-06T19:34:17.666Z,99797.19
2023-04-06T19:36:45.828Z,99790.75
2023-04-06T19:39:17.419Z,99779.63
2023-04-06T19:41:44.865Z,99784.62
2023-04-06T19:44:12.251Z,99785.47
2023-04-06T19:46:40.011Z,99789.31
2023-04-06T19:49:07.517Z,99786.13
2023-04-06T19:51:34.897Z,99777.94
2023-04-06T19:54:03.303Z,99778.69
2023-04-06T19:56:31.535Z,99782.25
2023-04-06T19:58:59.863Z,99783.31
2023-04-06T20:01:27.704Z,99773.37
2023-04-06T20:03:55.727Z,99779.66
2023-04-06T20:06:23.204Z,99770.91
2023-04-06T20:08:50.604Z,99781.91
2023-04-06T20:11:18.526Z,99779.41
2023-04-06T20:13:45.953Z,99775.88
2023-04-06T20:16:13.333Z,99775.50
2023-04-06T20:18:41.103Z,99778.81
2023-04-06T20:21:08.515Z,99788.13
2023-04-06T20:23:37.433Z,99785.97
2023-04-06T20:26:08.427Z,99777.44
2023-04-06T20:28:35.965Z,99774.84
2023-04-06T20:31:03.388Z,99772.72
2023-04-06T20:33:31.202Z,99776.16
2023-04-06T20:35:59.661Z,99782.16
2023-04-06T20:38:33.222Z,99773.37
2023-04-06T20:41:01.945Z,99775.09
2023-04-06T20:43:30.210Z,99772.81
2023-04-06T20:45:58.699Z,99776.53
2023-04-06T20:48:26.480Z,99773.53
2023-04-06T20:50:54.067Z,99768.53
2023-04-06T20:53:21.543Z,99775.94
2023-04-06T20:55:49.178Z,99773.63
2023-04-06T20:58:20.557Z,99780.81
2023-04-06T21:00:49.665Z,99770.72
2023-04-06T21:03:18.483Z,99764.41
2023-04-06T21:05:55.582Z,99770.72
2023-04-06T21:10:50.907Z,99778.19
2023-04-06T21:13:18.309Z,99780.56
2023-04-06T21:15:46.025Z,99784.81
2023-04-06T21:18:13.492Z,99771.34
2023-04-06T21:20:41.110Z,99774.75
2023-04-06T21:23:08.901Z,99774.59
2023-04-06T21:25:37.226Z,99781.28
2023-04-06T21:28:05.019Z,99772.25
2023-04-06T21:30:36.905Z,99776.75
2023-04-06T21:33:05.092Z,99773.97
2023-04-06T21:35:33.715Z,99773.13
2023-04-06T21:38:01.405Z,99770.28
2023-04-06T21:40:28.967Z,99766.75
2023-04-06T21:42:56.658Z,99759.00
2023-04-06T21:45:24.065Z,99766.06
2023-04-06T21:47:51.952Z,99752.84
2023-04-06T21:50:19.652Z,99752.84
2023-04-06T21:52:47.262Z,99755.16
2023-04-06T21:55:15.197Z,99752.16
2023-04-06T21:57:44.483Z,99744.50
2023-04-06T22:00:12.480Z,99739.38
2023-04-06T22:02:42.731Z,99745.03
2023-04-06T22:05:10.814Z,99736.50
2023-04-06T22:07:38.404Z,99735.00
2023-04-06T22:10:06.293Z,99734.91
2023-04-06T22:12:34.222Z,99724.81
2023-04-06T22:15:01.588Z,99727.37
2023-04-06T22:17:29.580Z,99720.28
2023-04-06T22:19:57.378Z,99722.94
2023-04-06T22:22:24.774Z,99728.72
2023-04-06T22:24:52.194Z,99727.09
2023-04-06T22:27:19.890Z,99724.66
2023-04-06T22:29:47.406Z,99722.81
2023-04-06T22:32:14.891Z,99716.91
2023-04-06T22:34:42.630Z,99723.09
2023-04-06T22:37:09.979Z,99712.00
2023-04-06T22:39:37.420Z,99722.38
2023-04-06T22:42:06.290Z,99726.56
2023-04-06T22:44:33.651Z,99722.06
2023-04-06T22:47:01.210Z,99727.63
2023-04-06T22:49:28.962Z,99722.72
2023-04-06T22:51:56.331Z,99730.00
2023-04-06T22:54:23.942Z,99722.44
2023-04-06T22:56:51.670Z,99722.41
2023-04-06T22:59:19.130Z,99720.09
2023-04-06T23:01:46.647Z,99707.62
2023-04-06T23:04:14.429Z,99717.97
2023-04-06T23:06:41.863Z,99711.37
2023-04-06T23:09:09.246Z,99713.88
2023-04-06T23:11:36.887Z,99707.09
2023-04-06T23:14:04.260Z,99708.12
2023-04-06T23:16:31.664Z,99701.63
2023-04-06T23:18:59.390Z,99703.22
2023-04-06T23:21:26.813Z,99696.41
2023-04-06T23:23:54.882Z,99696.47
2023-04-06T23:26:24.392Z,99693.84
2023-04-06T23:28:51.900Z,99685.97
2023-04-06T23:31:19.361Z,99685.84
2023-04-06T23:33:47.030Z,99683.69
2023-04-06T23:36:14.428Z,99691.06
2023-04-06T23:38:41.845Z,99690.44
2023-04-06T23:41:13.970Z,99691.38
2023-04-06T23:43:41.333Z,99685.97
2023-04-06T23:46:09.273Z,99696.53
2023-04-06T23:48:36.678Z,99694.28
2023-04-06T23:51:04.167Z,99694.31
2023-04-06T23:53:32.233Z,99691.59
2023-04-06T23:55:59.857Z,99679.88
2023-04-06T23:58:27.271Z,99680.56
